createdAt,value
2022-11-28T00:00:55.351Z,94764.81
2022-11-28T00:03:21.763Z,94765.88
2022-11-28T00:05:48.258Z,94768.78
2022-11-28T00:08:14.634Z,94764.38
2022-11-28T00:10:40.975Z,94769.63
2022-11-28T00:13:07.317Z,94764.53
2022-11-28T00:15:33.827Z,94761.91
2022-11-28T00:18:01.177Z,94760.81
2022-11-28T00:20:27.561Z,94764.09
2022-11-28T00:22:54.371Z,94762.97
2022-11-28T00:25:21.781Z,94755.78
2022-11-28T00:27:48.330Z,94759.91
2022-11-28T00:30:15.071Z,94757.81
2022-11-28T00:32:41.436Z,94760.44
2022-11-28T00:35:07.808Z,94752.75
2022-11-28T00:37:34.199Z,94762.38
2022-11-28T00:40:00.762Z,94745.88
2022-11-28T00:42:27.621Z,94744.06
2022-11-28T00:44:54.085Z,94745.03
2022-11-28T00:47:20.431Z,94740.06
2022-11-28T00:49:46.853Z,94740.06
2022-11-28T00:52:15.467Z,94736.50
2022-11-28T00:54:42.416Z,94748.63
2022-11-28T00:57:08.830Z,94738.13
2022-11-28T00:59:35.293Z,94735.25
2022-11-28T01:02:01.700Z,94736.75
2022-11-28T01:04:28.096Z,94732.63
2022-11-28T01:06:54.481Z,94731.41
2022-11-28T01:09:20.981Z,94729.75
2022-11-28T01:11:47.354Z,94737.66
2022-11-28T01:14:13.965Z,94733.75
2022-11-28T01:16:40.736Z,94732.91
2022-11-28T01:19:07.224Z,94735.69
2022-11-28T01:21:33.575Z,94721.63
2022-11-28T01:23:59.897Z,94731.25
2022-11-28T01:26:26.239Z,94734.34
2022-11-28T01:28:52.707Z,94713.50
2022-11-28T01:31:19.107Z,94719.06
2022-11-28T01:33:45.504Z,94710.78
2022-11-28T01:36:11.994Z,94709.44
2022-11-28T01:38:38.375Z,94705.72
2022-11-28T01:41:04.864Z,94691.81
2022-11-28T01:43:31.235Z,94690.59
2022-11-28T01:45:57.613Z,94690.50
2022-11-28T01:48:24.089Z,94685.00
2022-11-28T01:50:50.416Z,94693.16
2022-11-28T01:53:16.941Z,94692.16
2022-11-28T01:55:45.744Z,94681.44
2022-11-28T01:58:12.130Z,94679.25
2022-11-28T02:00:38.607Z,94676.09
2022-11-28T02:03:04.997Z,94671.53
2022-11-28T02:05:31.374Z,94662.72
2022-11-28T02:07:57.834Z,94654.50
2022-11-28T02:10:24.340Z,94658.63
2022-11-28T02:12:51.126Z,94648.19
2022-11-28T02:15:17.581Z,94643.63
2022-11-28T02:17:43.952Z,94633.56
2022-11-28T02:20:10.342Z,94633.94
2022-11-28T02:22:36.770Z,94626.25
2022-11-28T02:25:03.107Z,94631.34
2022-11-28T02:27:29.592Z,94635.25
2022-11-28T02:29:55.947Z,94628.91
2022-11-28T02:32:22.507Z,94618.84
2022-11-28T02:34:49.167Z,94623.13
2022-11-28T02:37:15.696Z,94611.00
2022-11-28T02:39:42.180Z,94614.75
2022-11-28T02:42:08.563Z,94620.06
2022-11-28T02:44:35.016Z,94621.28
2022-11-28T02:47:01.462Z,94623.19
2022-11-28T02:49:27.893Z,94623.19
2022-11-28T02:51:54.238Z,94620.56
2022-11-28T02:54:20.637Z,94618.50
2022-11-28T02:56:47.216Z,94614.22
2022-11-28T02:59:13.968Z,94624.31
2022-11-28T03:01:40.532Z,94609.44
2022-11-28T03:04:07.018Z,94616.00
2022-11-28T03:06:33.846Z,94614.34
2022-11-28T03:09:00.236Z,94613.22
2022-11-28T03:11:26.699Z,94604.13
2022-11-28T03:13:53.054Z,94606.59
2022-11-28T03:16:19.558Z,94601.22
2022-11-28T03:18:45.988Z,94600.25
2022-11-28T03:21:12.540Z,94597.34
2022-11-28T03:23:40.980Z,94593.59
2022-11-28T03:26:07.530Z,94596.91
2022-11-28T03:28:33.872Z,94591.50
2022-11-28T03:31:00.456Z,94583.66
2022-11-28T03:33:27.225Z,94590.47
2022-11-28T03:35:55.709Z,94578.56
2022-11-28T03:38:22.490Z,94581.84
2022-11-28T03:40:48.872Z,94581.53
2022-11-28T03:43:15.340Z,94588.44
2022-11-28T03:45:42.178Z,94585.81
2022-11-28T03:48:08.869Z,94589.13
2022-11-28T03:50:35.600Z,94587.03
2022-11-28T03:53:02.346Z,94583.22
2022-11-28T03:55:28.771Z,94591.47
2022-11-28T03:57:55.139Z,94585.41
2022-11-28T04:00:21.561Z,94587.81
2022-11-28T04:02:48.093Z,94594.97
2022-11-28T04:05:14.563Z,94584.88
2022-11-28T04:07:41.019Z,94589.97
2022-11-28T04:10:07.578Z,94581.59
2022-11-28T04:12:33.973Z,94580.78
2022-11-28T04:15:02.740Z,94579.50
2022-11-28T04:17:29.194Z,94572.66
2022-11-28T04:19:55.653Z,94576.63
2022-11-28T04:22:22.291Z,94576.63
2022-11-28T04:24:48.731Z,94565.63
2022-11-28T04:27:15.085Z,94562.88
2022-11-28T04:29:41.438Z,94566.16
2022-11-28T04:32:07.848Z,94558.31
2022-11-28T04:34:34.193Z,94543.31
2022-11-28T04:37:02.463Z,94543.47
2022-11-28T04:39:31.940Z,94540.69
2022-11-28T04:41:58.321Z,94543.31
2022-11-28T04:44:24.658Z,94534.63
2022-11-28T04:46:51.429Z,94537.41
2022-11-28T04:49:18.020Z,94538.50
2022-11-28T04:51:44.356Z,94547.03
2022-11-28T04:54:11.074Z,94542.91
2022-11-28T04:56:39.974Z,94543.47
2022-11-28T04:59:08.956Z,94541.19
2022-11-28T05:01:35.813Z,94544.16
2022-11-28T05:04:02.366Z,94545.81
2022-11-28T05:06:28.818Z,94546.78
2022-11-28T05:08:55.199Z,94544.56
2022-11-28T05:11:21.575Z,94547.44
2022-11-28T05:13:47.942Z,94549.06
2022-11-28T05:16:14.318Z,94540.09
2022-11-28T05:18:40.670Z,94544.22
2022-11-28T05:21:07.190Z,94552.75
2022-11-28T05:23:33.743Z,94547.34
2022-11-28T05:26:00.203Z,94540.47
2022-11-28T05:28:26.649Z,94536.59
2022-11-28T05:30:53.025Z,94536.31
2022-11-28T05:33:20.169Z,94539.28
2022-11-28T05:35:46.656Z,94542.31
2022-11-28T05:38:13.754Z,94543.66
2022-11-28T05:40:40.320Z,94542.38
2022-11-28T05:43:06.826Z,94550.75
2022-11-28T05:45:33.292Z,94532.28
2022-11-28T05:47:59.711Z,94540.50
2022-11-28T05:50:26.080Z,94542.06
2022-11-28T05:52:53.183Z,94536.63
2022-11-28T05:55:20.776Z,94539.25
2022-11-28T05:57:47.151Z,94540.03
2022-11-28T06:00:13.526Z,94534.69
2022-11-28T06:02:39.919Z,94538.78
2022-11-28T06:05:27.380Z,94531.59
2022-11-28T06:07:52.737Z,94528.97
2022-11-28T06:10:21.225Z,94532.88
2022-11-28T06:12:47.606Z,94529.28
2022-11-28T06:15:13.994Z,94529.81
2022-11-28T06:17:40.383Z,94540.59
2022-11-28T06:20:06.751Z,94542.06
2022-11-28T06:22:33.216Z,94530.66
2022-11-28T06:24:59.717Z,94528.84
2022-11-28T06:27:26.355Z,94532.81
2022-11-28T06:29:52.742Z,94531.41
2022-11-28T06:32:22.170Z,94530.13
2022-11-28T06:34:49.057Z,94532.41
2022-11-28T06:37:15.911Z,94526.22
2022-11-28T06:39:42.950Z,94523.91
2022-11-28T06:42:09.513Z,94532.56
2022-11-28T06:44:35.956Z,94523.22
2022-11-28T06:47:02.526Z,94527.94
2022-11-28T06:49:29.680Z,94523.81
2022-11-28T06:51:56.230Z,94530.56
2022-11-28T06:54:22.938Z,94522.03
2022-11-28T06:56:50.530Z,94523.81
2022-11-28T06:59:17.105Z,94525.03
2022-11-28T07:01:43.635Z,94532.13
2022-11-28T07:04:10.062Z,94539.00
2022-11-28T07:06:36.770Z,94537.22
2022-11-28T07:09:04.600Z,94537.72
2022-11-28T07:11:30.986Z,94538.13
2022-11-28T07:13:57.322Z,94537.44
2022-11-28T07:16:23.800Z,94536.31
2022-11-28T07:18:51.395Z,94536.16
2022-11-28T07:21:17.807Z,94543.72
2022-11-28T07:23:44.265Z,94542.75
2022-11-28T07:26:10.795Z,94538.69
2022-11-28T07:28:37.462Z,94555.91
2022-11-28T07:31:04.106Z,94549.06
2022-11-28T07:33:30.455Z,94548.63
2022-11-28T07:35:57.154Z,94549.47
2022-11-28T07:38:23.911Z,94546.47
2022-11-28T07:40:50.372Z,94548.94
2022-11-28T07:43:17.071Z,94543.91
2022-11-28T07:46:00.144Z,94543.63
2022-11-28T07:48:27.703Z,94551.97
2022-11-28T07:50:54.289Z,94545.00
2022-11-28T07:53:20.678Z,94544.53
2022-11-28T07:55:47.215Z,94543.25
2022-11-28T07:58:14.392Z,94544.28
2022-11-28T08:00:41.867Z,94543.66
2022-11-28T08:03:08.476Z,94535.03
2022-11-28T08:05:34.880Z,94540.31
2022-11-28T08:08:01.402Z,94533.31
2022-11-28T08:10:27.811Z,94541.66
2022-11-28T08:12:54.173Z,94537.69
2022-11-28T08:15:20.684Z,94542.38
2022-11-28T08:17:47.528Z,94544.22
2022-11-28T08:20:13.912Z,94544.31
2022-11-28T08:22:40.377Z,94544.84
2022-11-28T08:25:07.800Z,94543.28
2022-11-28T08:27:35.712Z,94535.97
2022-11-28T08:30:02.101Z,94535.81
2022-11-28T08:32:28.450Z,94523.22
2022-11-28T08:34:54.799Z,94528.81
2022-11-28T08:37:21.195Z,94529.66
2022-11-28T08:39:47.619Z,94530.16
2022-11-28T08:42:13.995Z,94529.84
2022-11-28T08:44:40.381Z,94524.78
2022-11-28T08:47:06.853Z,94524.97
2022-11-28T08:49:33.339Z,94527.59
2022-11-28T08:52:00.016Z,94523.31
2022-11-28T08:54:26.539Z,94519.72
2022-11-28T08:56:53.020Z,94515.78
2022-11-28T08:59:19.588Z,94517.41
2022-11-28T09:01:46.080Z,94514.78
2022-11-28T09:04:12.790Z,94515.78
2022-11-28T09:06:42.086Z,94520.88
2022-11-28T09:09:08.755Z,94509.50
2022-11-28T09:11:36.154Z,94514.75
2022-11-28T09:14:02.857Z,94513.31
2022-11-28T09:16:29.673Z,94509.19
2022-11-28T09:18:56.600Z,94517.09
2022-11-28T09:21:23.634Z,94516.25
2022-11-28T09:23:50.015Z,94515.38
2022-11-28T09:26:17.483Z,94516.38
2022-11-28T09:28:44.135Z,94516.69
2022-11-28T09:31:10.557Z,94521.25
2022-11-28T09:33:37.093Z,94517.31
2022-11-28T09:36:03.457Z,94517.69
2022-11-28T09:38:29.803Z,94520.31
2022-11-28T09:40:56.203Z,94515.00
2022-11-28T09:43:30.381Z,94506.72
2022-11-28T09:45:56.836Z,94506.88
2022-11-28T09:48:23.340Z,94511.28
2022-11-28T09:50:50.260Z,94509.94
2022-11-28T09:53:17.331Z,94504.97
2022-11-28T09:55:44.175Z,94502.97
2022-11-28T09:58:10.860Z,94504.91
2022-11-28T10:00:37.306Z,94492.69
2022-11-28T10:03:03.885Z,94495.44
2022-11-28T10:05:31.262Z,94496.38
2022-11-28T10:07:57.667Z,94502.59
2022-11-28T10:10:24.163Z,94499.09
2022-11-28T10:12:50.804Z,94487.00
2022-11-28T10:15:17.175Z,94487.50
2022-11-28T10:17:43.713Z,94485.59
2022-11-28T10:20:10.420Z,94496.97
2022-11-28T10:22:36.942Z,94494.00
2022-11-28T10:25:03.320Z,94493.94
2022-11-28T10:27:30.695Z,94488.94
2022-11-28T10:29:57.079Z,94485.03
2022-11-28T10:32:25.002Z,94470.38
2022-11-28T10:34:54.436Z,94468.34
2022-11-28T10:37:21.159Z,94472.41
2022-11-28T10:39:47.761Z,94461.75
2022-11-28T10:42:14.290Z,94468.22
2022-11-28T10:44:40.863Z,94461.88
2022-11-28T10:47:08.255Z,94474.34
2022-11-28T10:49:34.935Z,94465.78
2022-11-28T10:52:01.497Z,94463.53
2022-11-28T10:54:28.058Z,94468.28
2022-11-28T10:56:54.390Z,94451.53
2022-11-28T10:59:20.854Z,94452.44
2022-11-28T11:01:50.131Z,94449.25
2022-11-28T11:04:17.026Z,94452.53
2022-11-28T11:07:07.131Z,94450.06
2022-11-28T11:09:33.133Z,94441.00
2022-11-28T11:11:59.880Z,94443.56
2022-11-28T11:14:26.496Z,94440.19
2022-11-28T11:16:52.955Z,94438.28
2022-11-28T11:19:19.451Z,94440.09
2022-11-28T11:21:46.672Z,94439.66
2022-11-28T11:24:13.074Z,94441.00
2022-11-28T11:26:40.062Z,94437.34
2022-11-28T11:29:06.801Z,94443.44
2022-11-28T11:31:33.606Z,94434.16
2022-11-28T11:34:00.094Z,94423.91
2022-11-28T11:36:26.733Z,94434.81
2022-11-28T11:38:53.307Z,94431.00
2022-11-28T11:41:19.708Z,94432.91
2022-11-28T11:43:46.171Z,94429.63
2022-11-28T11:46:12.590Z,94431.38
2022-11-28T11:48:39.345Z,94432.34
2022-11-28T11:51:05.792Z,94430.00
2022-11-28T11:53:32.191Z,94424.44
2022-11-28T11:56:01.473Z,94424.09
2022-11-28T11:58:28.283Z,94420.63
2022-11-28T12:00:54.655Z,94430.09
2022-11-28T12:03:21.300Z,94428.53
2022-11-28T12:06:12.782Z,94438.63
2022-11-28T12:08:35.615Z,94441.81
2022-11-28T12:11:02.072Z,94441.81
2022-11-28T12:13:29.472Z,94443.16
2022-11-28T12:15:56.087Z,94433.09
2022-11-28T12:18:22.722Z,94430.63
2022-11-28T12:20:49.097Z,94427.09
2022-11-28T12:23:17.516Z,94427.72
2022-11-28T12:25:44.223Z,94425.63
2022-11-28T12:28:10.546Z,94428.50
2022-11-28T12:30:39.116Z,94417.97
2022-11-28T12:33:08.461Z,94423.25
2022-11-28T12:35:34.855Z,94420.22
2022-11-28T12:38:16.591Z,94413.31
2022-11-28T12:40:43.032Z,94410.47
2022-11-28T12:43:09.653Z,94405.94
2022-11-28T12:45:36.135Z,94401.66
2022-11-28T12:48:02.583Z,94403.19
2022-11-28T12:50:29.167Z,94397.75
2022-11-28T12:52:55.512Z,94405.63
2022-11-28T12:55:24.703Z,94403.47
2022-11-28T12:57:51.303Z,94403.00
2022-11-28T13:00:17.636Z,94404.91
2022-11-28T13:02:44.128Z,94403.94
2022-11-28T13:05:10.557Z,94406.13
2022-11-28T13:07:36.942Z,94399.78
2022-11-28T13:10:03.344Z,94404.81
2022-11-28T13:12:29.675Z,94402.59
2022-11-28T13:14:56.030Z,94415.97
2022-11-28T13:17:22.612Z,94409.06
2022-11-28T13:19:49.217Z,94412.31
2022-11-28T13:22:15.765Z,94412.56
2022-11-28T13:24:42.243Z,94412.41
2022-11-28T13:27:08.622Z,94408.84
2022-11-28T13:29:34.973Z,94417.31
2022-11-28T13:32:02.365Z,94400.81
2022-11-28T13:34:29.051Z,94416.66
2022-11-28T13:39:44.019Z,94413.56
2022-11-28T13:44:58.718Z,94418.59
2022-11-28T13:47:25.053Z,94422.69
2022-11-28T13:49:51.622Z,94430.72
2022-11-28T13:52:19.025Z,94425.16
2022-11-28T13:54:45.574Z,94422.50
2022-11-28T13:57:12.156Z,94431.44
2022-11-28T13:59:38.523Z,94430.41
2022-11-28T14:02:05.278Z,94436.09
2022-11-28T14:04:34.404Z,94432.53
2022-11-28T14:07:00.826Z,94442.00
2022-11-28T14:09:27.312Z,94437.91
2022-11-28T14:11:53.743Z,94440.81
2022-11-28T14:14:20.156Z,94443.72
2022-11-28T14:16:51.587Z,94440.19
2022-11-28T14:19:18.708Z,94448.81
2022-11-28T14:21:45.151Z,94446.47
2022-11-28T14:24:11.595Z,94443.25
2022-11-28T14:26:38.278Z,94451.09
2022-11-28T14:29:04.723Z,94450.84
2022-11-28T14:31:31.220Z,94454.91
2022-11-28T14:33:57.671Z,94452.53
2022-11-28T14:36:24.045Z,94455.25
2022-11-28T14:38:50.390Z,94466.94
2022-11-28T14:41:16.722Z,94464.53
2022-11-28T14:43:44.443Z,94466.53
2022-11-28T14:46:10.816Z,94468.19
2022-11-28T14:48:37.322Z,94462.84
2022-11-28T14:51:03.713Z,94470.03
2022-11-28T14:53:30.086Z,94465.47
2022-11-28T14:55:56.650Z,94473.66
2022-11-28T14:58:25.524Z,94471.31
2022-11-28T15:00:52.051Z,94475.75
2022-11-28T15:03:18.447Z,94480.13
2022-11-28T15:05:44.905Z,94478.91
2022-11-28T15:08:12.549Z,94483.72
2022-11-28T15:10:39.128Z,94484.81
2022-11-28T15:13:05.446Z,94488.00
2022-11-28T15:15:31.924Z,94478.38
2022-11-28T15:17:59.343Z,94477.28
2022-11-28T15:20:25.695Z,94479.47
2022-11-28T15:22:52.121Z,94475.09
2022-11-28T15:25:18.500Z,94479.72
2022-11-28T15:27:44.946Z,94481.47
2022-11-28T15:30:11.396Z,94491.06
2022-11-28T15:32:37.727Z,94481.31
2022-11-28T15:35:07.918Z,94483.03
2022-11-28T15:37:38.791Z,94492.41
2022-11-28T15:40:07.911Z,94490.50
2022-11-28T15:42:34.491Z,94481.94
2022-11-28T15:45:00.919Z,94481.16
2022-11-28T15:47:27.300Z,94481.31
2022-11-28T15:49:54.092Z,94487.78
2022-11-28T15:52:20.476Z,94491.31
2022-11-28T15:54:47.323Z,94491.47
2022-11-28T15:57:14.014Z,94490.88
2022-11-28T15:59:40.387Z,94497.31
2022-11-28T16:02:06.756Z,94492.22
2022-11-28T16:04:33.131Z,94491.84
2022-11-28T16:06:59.462Z,94495.69
2022-11-28T16:09:25.896Z,94495.31
2022-11-28T16:11:52.484Z,94494.97
2022-11-28T16:14:18.926Z,94503.69
2022-11-28T16:16:45.338Z,94500.97
2022-11-28T16:19:11.766Z,94504.19
2022-11-28T16:21:38.155Z,94508.69
2022-11-28T16:24:05.334Z,94502.91
2022-11-28T16:26:31.921Z,94508.47
2022-11-28T16:28:58.303Z,94506.09
2022-11-28T16:31:24.675Z,94507.41
2022-11-28T16:33:52.301Z,94520.06
2022-11-28T16:36:18.676Z,94523.22
2022-11-28T16:38:45.073Z,94517.13
2022-11-28T16:41:11.439Z,94517.94
2022-11-28T16:43:38.034Z,94518.75
2022-11-28T16:46:04.442Z,94514.66
2022-11-28T16:48:30.858Z,94527.66
2022-11-28T16:50:57.302Z,94519.81
2022-11-28T16:53:23.888Z,94523.22
2022-11-28T16:55:50.464Z,94520.56
2022-11-28T16:58:16.902Z,94529.81
2022-11-28T17:00:43.348Z,94525.78
2022-11-28T17:03:12.922Z,94530.47
2022-11-28T17:05:39.405Z,94523.69
2022-11-28T17:08:05.856Z,94525.19
2022-11-28T17:10:32.240Z,94538.69
2022-11-28T17:12:58.666Z,94535.19
2022-11-28T17:15:25.068Z,94536.16
2022-11-28T17:17:53.755Z,94536.56
2022-11-28T17:20:22.420Z,94537.25
2022-11-28T17:22:51.405Z,94530.28
2022-11-28T17:25:18.407Z,94533.38
2022-11-28T17:27:44.933Z,94533.94
2022-11-28T17:30:11.317Z,94536.19
2022-11-28T17:32:37.759Z,94540.63
2022-11-28T17:35:04.654Z,94523.06
2022-11-28T17:37:31.189Z,94534.06
2022-11-28T17:39:57.585Z,94537.53
2022-11-28T17:42:25.427Z,94531.28
2022-11-28T17:44:51.997Z,94535.69
2022-11-28T17:47:18.618Z,94528.63
2022-11-28T17:49:46.592Z,94532.19
2022-11-28T17:52:13.351Z,94532.50
2022-11-28T17:54:40.735Z,94533.84
2022-11-28T17:57:07.324Z,94541.75
2022-11-28T17:59:35.928Z,94539.41
2022-11-28T18:02:04.725Z,94549.59
2022-11-28T18:04:32.152Z,94543.31
2022-11-28T18:06:58.841Z,94542.16
2022-11-28T18:09:25.235Z,94547.44
2022-11-28T18:11:53.161Z,94541.53
2022-11-28T18:14:20.030Z,94539.72
2022-11-28T18:16:46.692Z,94540.69
2022-11-28T18:19:13.098Z,94536.75
2022-11-28T18:21:39.551Z,94535.94
2022-11-28T18:24:05.923Z,94533.47
2022-11-28T18:26:33.308Z,94531.22
2022-11-28T18:28:59.687Z,94536.19
2022-11-28T18:31:28.660Z,94541.13
2022-11-28T18:34:00.195Z,94537.50
2022-11-28T18:36:26.891Z,94539.47
2022-11-28T18:38:53.386Z,94539.69
2022-11-28T18:41:19.806Z,94537.91
2022-11-28T18:43:46.220Z,94545.78
2022-11-28T18:46:12.622Z,94538.03
2022-11-28T18:48:39.035Z,94538.72
2022-11-28T18:51:05.376Z,94550.94
2022-11-28T18:53:31.926Z,94549.31
2022-11-28T18:55:58.308Z,94540.00
2022-11-28T18:58:24.790Z,94547.22
2022-11-28T19:00:51.188Z,94542.00
2022-11-28T19:03:17.677Z,94548.19
2022-11-28T19:05:46.345Z,94544.91
2022-11-28T19:08:13.160Z,94546.06
2022-11-28T19:10:39.571Z,94546.72
2022-11-28T19:13:06.942Z,94545.72
2022-11-28T19:15:33.372Z,94547.88
2022-11-28T19:17:59.745Z,94551.66
2022-11-28T19:20:26.121Z,94546.91
2022-11-28T19:22:52.497Z,94555.91
2022-11-28T19:25:18.853Z,94555.59
2022-11-28T19:27:45.225Z,94553.78
2022-11-28T19:30:11.772Z,94555.91
2022-11-28T19:32:38.115Z,94559.34
2022-11-28T19:35:04.583Z,94562.00
2022-11-28T19:37:30.966Z,94556.06
2022-11-28T19:40:02.300Z,94563.28
2022-11-28T19:42:29.453Z,94559.19
2022-11-28T19:44:55.902Z,94561.34
2022-11-28T19:47:22.234Z,94561.06
2022-11-28T19:49:48.548Z,94560.38
2022-11-28T19:52:14.959Z,94565.66
2022-11-28T19:54:41.782Z,94568.41
2022-11-28T19:57:08.351Z,94565.13
2022-11-28T19:59:34.951Z,94568.97
2022-11-28T20:02:01.546Z,94561.41
2022-11-28T20:04:28.114Z,94566.66
2022-11-28T20:06:54.452Z,94567.97
2022-11-28T20:09:21.858Z,94567.66
2022-11-28T20:11:48.416Z,94568.31
2022-11-28T20:14:14.969Z,94566.63
2022-11-28T20:16:46.771Z,94568.31
2022-11-28T20:19:13.219Z,94571.75
2022-11-28T20:21:39.592Z,94576.50
2022-11-28T20:24:06.966Z,94571.22
2022-11-28T20:26:33.324Z,94573.03
2022-11-28T20:28:59.662Z,94582.41
2022-11-28T20:31:26.544Z,94580.31
2022-11-28T20:33:53.025Z,94575.53
2022-11-28T20:36:19.554Z,94582.09
2022-11-28T20:38:46.214Z,94579.66
2022-11-28T20:41:12.595Z,94589.84
2022-11-28T20:43:39.004Z,94586.06
2022-11-28T20:46:05.476Z,94591.31
2022-11-28T20:48:31.904Z,94587.38
2022-11-28T20:50:58.259Z,94590.03
2022-11-28T20:53:26.940Z,94596.91
2022-11-28T20:55:53.523Z,94597.25
2022-11-28T20:58:20.111Z,94600.56
2022-11-28T21:00:46.566Z,94593.63
2022-11-28T21:03:13.068Z,94592.19
2022-11-28T21:05:39.934Z,94594.63
2022-11-28T21:08:06.401Z,94590.53
2022-11-28T21:10:33.042Z,94587.06
2022-11-28T21:12:59.407Z,94591.19
2022-11-28T21:15:25.786Z,94593.50
2022-11-28T21:17:52.163Z,94587.41
2022-11-28T21:20:18.550Z,94589.69
2022-11-28T21:22:45.711Z,94583.63
2022-11-28T21:25:12.102Z,94582.16
2022-11-28T21:27:38.452Z,94577.56
2022-11-28T21:30:04.806Z,94575.88
2022-11-28T21:32:31.377Z,94579.53
2022-11-28T21:35:03.913Z,94578.03
2022-11-28T21:37:30.893Z,94572.59
2022-11-28T21:39:57.362Z,94580.84
2022-11-28T21:42:23.691Z,94583.78
2022-11-28T21:44:50.037Z,94589.03
2022-11-28T21:47:16.401Z,94585.75
2022-11-28T21:49:43.127Z,94580.84
2022-11-28T21:52:09.738Z,94583.28
2022-11-28T21:54:36.132Z,94585.91
2022-11-28T21:57:04.571Z,94589.69
2022-11-28T21:59:30.895Z,94592.16
2022-11-28T22:01:57.308Z,94591.81
2022-11-28T22:04:23.709Z,94588.22
2022-11-28T22:06:50.082Z,94588.88
2022-11-28T22:09:16.564Z,94583.44
2022-11-28T22:11:43.033Z,94593.63
2022-11-28T22:14:09.389Z,94594.28
2022-11-28T22:16:35.821Z,94589.38
2022-11-28T22:19:02.266Z,94594.78
2022-11-28T22:21:52.421Z,94597.44
2022-11-28T22:24:14.920Z,94597.44
2022-11-28T22:26:41.313Z,94592.97
2022-11-28T22:29:07.718Z,94589.69
2022-11-28T22:31:34.171Z,94590.50
2022-11-28T22:34:00.520Z,94589.69
2022-11-28T22:36:26.911Z,94597.75
2022-11-28T22:38:53.819Z,94589.19
2022-11-28T22:41:27.863Z,94592.00
2022-11-28T22:43:55.419Z,94584.75
2022-11-28T22:46:21.787Z,94588.72
2022-11-28T22:48:48.206Z,94581.78
2022-11-28T22:51:14.765Z,94581.78
2022-11-28T22:53:41.381Z,94587.88
2022-11-28T22:56:07.922Z,94580.81
2022-11-28T22:58:39.333Z,94581.00
2022-11-28T23:01:08.841Z,94584.59
2022-11-28T23:03:35.458Z,94583.47
2022-11-28T23:06:02.038Z,94588.88
2022-11-28T23:08:28.482Z,94582.44
2022-11-28T23:10:54.890Z,94588.38
2022-11-28T23:13:21.229Z,94585.44
2022-11-28T23:15:52.666Z,94589.69
2022-11-28T23:18:19.276Z,94585.75
2022-11-28T23:20:45.650Z,94589.03
2022-11-28T23:23:12.034Z,94585.44
2022-11-28T23:25:38.379Z,94590.69
2022-11-28T23:28:04.714Z,94588.38
2022-11-28T23:30:31.439Z,94582.97
2022-11-28T23:32:57.811Z,94588.06
2022-11-28T23:35:24.432Z,94582.31
2022-11-28T23:37:50.867Z,94577.72
2022-11-28T23:40:17.526Z,94580.34
2022-11-28T23:42:43.893Z,94577.56
2022-11-28T23:45:10.339Z,94577.72
2022-11-28T23:47:36.712Z,94572.13
2022-11-28T23:50:03.054Z,94572.13
2022-11-28T23:52:29.421Z,94568.34
2022-11-28T23:54:55.799Z,94568.00
2022-11-28T23:57:22.132Z,94570.31
2022-11-28T23:59:48.578Z,94570.97
